Time;durP1;ratioP1;P1;durP2;ratioP2;P2;SDS_P1;SDS_P2;PMS_P1;PMS_P2;Temp;Humidity;BMP_temperature;BMP_pressure;BME280_temperature;BME280_humidity;BME280_pressure;Samples;Min_cycle;Max_cycle;Signal;HPM_P1;HPM_P2
2021/01/30 00:01:03;;;;;;;0.60;0.60;;;;;;;5.83;77.12;95601.34;299395;231;63009;-68
2021/01/30 00:06:05;;;;;;;0.60;0.60;;;;;;;5.69;77.35;95608.56;299395;198;63005;-70
2021/01/30 00:11:06;;;;;;;0.70;0.70;;;;;;;5.64;77.23;95614.81;299395;331;63009;-68
2021/01/30 00:16:07;;;;;;;0.60;0.60;;;;;;;5.65;76.03;95623.69;299395;256;63004;-66
2021/01/30 00:21:11;;;;;;;0.60;0.60;;;;;;;5.65;76.28;95637.16;299395;336;63009;-67
2021/01/30 00:26:13;;;;;;;0.60;0.60;;;;;;;5.59;76.20;95631.03;299395;275;63005;-69
2021/01/30 00:31:14;;;;;;;0.60;0.60;;;;;;;5.54;76.08;95617.69;299395;236;63009;-66
2021/01/30 00:36:15;;;;;;;0.60;0.60;;;;;;;5.51;75.81;95614.78;299395;203;63005;-68
2021/01/30 00:41:16;;;;;;;0.60;0.60;;;;;;;5.43;75.81;95610.84;299395;229;63009;-67
2021/01/30 00:46:17;;;;;;;0.60;0.60;;;;;;;5.45;75.15;95611.34;299395;215;63004;-64
2021/01/30 00:51:20;;;;;;;0.60;0.60;;;;;;;5.49;74.58;95611.56;299395;228;63009;-62
2021/01/30 00:56:21;;;;;;;0.70;0.70;;;;;;;5.49;74.67;95617.75;299395;354;63005;-68
2021/01/30 01:01:22;;;;;;;0.60;0.60;;;;;;;5.47;74.74;95629.91;299395;266;63012;-61
2021/01/30 01:06:23;;;;;;;0.60;0.60;;;;;;;5.45;75.07;95624.00;299395;215;63004;-74
2021/01/30 01:11:24;;;;;;;0.60;0.60;;;;;;;5.47;75.10;95616.44;299395;222;63009;-65
2021/01/30 01:16:25;;;;;;;0.65;0.65;;;;;;;5.25;76.44;95612.44;299395;215;63004;-70
2021/01/30 01:21:27;;;;;;;0.70;0.70;;;;;;;5.15;76.59;95622.53;299395;224;63021;-62
2021/01/30 01:26:29;;;;;;;0.60;0.60;;;;;;;5.09;77.12;95619.09;299395;206;63010;-66
2021/01/30 01:31:30;;;;;;;0.60;0.60;;;;;;;5.29;76.24;95624.19;299395;203;63008;-67
2021/01/30 01:36:31;;;;;;;0.60;0.60;;;;;;;5.29;76.30;95623.41;299395;227;63004;-61
2021/01/30 01:41:32;;;;;;;0.60;0.60;;;;;;;5.29;76.37;95618.81;299395;307;63009;-67
2021/01/30 01:46:38;;;;;;;0.60;0.60;;;;;;;5.36;75.93;95623.84;299395;198;63004;-67
2021/01/30 01:52:00;;;;;;;0.60;0.60;;;;;;;5.18;77.83;95630.81;299395;236;63009;-67
2021/01/30 01:57:08;;;;;;;0.60;0.60;;;;;;;5.23;77.66;95633.44;299395;221;63005;-67
2021/01/30 02:02:11;;;;;;;0.60;0.60;;;;;;;5.17;77.96;95636.50;299395;219;63008;-68
2021/01/30 02:07:12;;;;;;;0.60;0.60;;;;;;;5.16;78.43;95624.13;299395;235;63004;-68
2021/01/30 02:12:14;;;;;;;0.70;0.70;;;;;;;5.04;79.14;95636.09;299395;247;63009;-67
2021/01/30 02:17:56;;;;;;;0.60;0.60;;;;;;;5.13;78.66;95619.34;299395;254;63011;-59
2021/01/30 02:23:49;;;;;;;0.60;0.60;;;;;;;5.04;78.80;95613.78;299395;214;63009;-68
2021/01/30 02:29:36;;;;;;;0.60;0.60;;;;;;;5.13;78.56;95614.75;299395;297;63004;-66
2021/01/30 02:35:13;;;;;;;0.70;0.70;;;;;;;4.87;80.32;95610.78;299417;212;63009;-69
2021/01/30 02:40:19;;;;;;;0.60;0.60;;;;;;;4.92;80.00;95613.41;299395;234;63005;-64
2021/01/30 02:45:26;;;;;;;0.60;0.60;;;;;;;5.14;78.93;95604.81;299395;218;63009;-65
2021/01/30 02:50:39;;;;;;;0.60;0.60;;;;;;;4.83;80.14;95599.81;299395;223;63010;-67
2021/01/30 02:55:41;;;;;;;0.60;0.60;;;;;;;4.66;81.49;95608.34;299395;216;63009;-68
2021/01/30 03:00:45;;;;;;;0.60;0.60;;;;;;;4.74;80.47;95606.91;299395;232;63004;-69
2021/01/30 03:05:46;;;;;;;0.60;0.60;;;;;;;4.66;81.23;95589.53;299395;196;63009;-70
2021/01/30 03:11:09;;;;;;;0.60;0.60;;;;;;;4.56;81.21;95586.94;299395;222;63005;-69
2021/01/30 03:16:17;;;;;;;0.60;0.60;;;;;;;4.52;81.50;95583.22;299394;344;64014;-70
2021/01/30 03:21:20;;;;;;;0.60;0.60;;;;;;;4.53;81.82;95579.47;299395;206;63004;-57
2021/01/30 03:26:23;;;;;;;0.60;0.60;;;;;;;4.60;81.53;95574.56;299395;210;63024;-69
2021/01/30 03:31:24;;;;;;;0.60;0.60;;;;;;;4.64;81.16;95580.94;299395;203;63005;-67
2021/01/30 03:36:25;;;;;;;0.70;0.70;;;;;;;4.57;81.55;95585.88;299395;232;63009;-69
2021/01/30 03:41:26;;;;;;;0.60;0.60;;;;;;;4.66;80.93;95584.16;299395;212;63005;-68
2021/01/30 03:46:27;;;;;;;0.60;0.60;;;;;;;4.57;81.77;95571.63;299395;202;63005;-70
2021/01/30 03:51:31;;;;;;;0.70;0.70;;;;;;;4.60;82.00;95569.19;299395;197;63004;-68
2021/01/30 03:56:32;;;;;;;0.70;0.70;;;;;;;4.60;82.28;95569.19;299417;264;63009;-70
2021/01/30 04:01:34;;;;;;;0.62;0.62;;;;;;;4.69;81.59;95564.78;299395;263;63005;-71
2021/01/30 04:06:35;;;;;;;0.60;0.60;;;;;;;4.79;81.07;95552.31;299395;219;63009;-69
2021/01/30 04:11:39;;;;;;;0.60;0.60;;;;;;;4.79;81.12;95544.25;299395;230;63010;-69
2021/01/30 04:16:40;;;;;;;0.62;0.62;;;;;;;4.66;81.79;95529.63;299439;296;63009;-69
2021/01/30 04:21:41;;;;;;;0.60;0.60;;;;;;;4.77;80.83;95524.94;299395;206;63004;-68
2021/01/30 04:26:47;;;;;;;0.60;0.60;;;;;;;4.85;79.91;95527.75;299395;264;63004;-69
2021/01/30 04:31:55;;;;;;;0.60;0.60;;;;;;;4.74;80.24;95529.00;299395;202;63005;-58
2021/01/30 04:36:56;;;;;;;0.60;0.60;;;;;;;5.07;78.53;95529.88;299395;220;63008;-68
2021/01/30 04:42:13;;;;;;;0.70;0.70;;;;;;;4.87;79.30;95516.69;299395;234;63004;-70
2021/01/30 04:47:49;;;;;;;0.70;0.70;;;;;;;4.93;79.73;95523.62;299395;224;63009;-68
2021/01/30 04:53:00;;;;;;;0.70;0.70;;;;;;;5.01;79.40;95517.59;299417;200;63005;-66
2021/01/30 04:58:20;;;;;;;0.70;0.70;;;;;;;5.04;78.86;95508.94;299373;336;63009;-65
2021/01/30 05:03:54;;;;;;;0.62;0.62;;;;;;;4.91;79.90;95504.28;299395;196;63005;-68
2021/01/30 05:09:07;;;;;;;0.60;0.60;;;;;;;4.95;78.55;95510.69;299395;241;63009;-70
2021/01/30 05:14:15;;;;;;;0.70;0.70;;;;;;;4.77;79.56;95504.22;299395;197;63004;-71
2021/01/30 05:19:18;;;;;;;0.70;0.70;;;;;;;4.88;78.47;95500.28;299395;259;63009;-67
2021/01/30 05:24:20;;;;;;;0.70;0.70;;;;;;;4.89;77.90;95495.72;299395;255;63005;-67
2021/01/30 05:30:10;;;;;;;0.60;0.60;;;;;;;4.78;78.41;95483.53;299395;251;63008;-67
2021/01/30 05:35:36;;;;;;;0.62;0.62;;;;;;;4.96;77.00;95482.72;299395;220;63004;-69
2021/01/30 05:40:58;;;;;;;0.60;0.60;;;;;;;4.98;76.79;95467.09;299395;207;63009;-68
2021/01/30 05:46:00;;;;;;;0.60;0.60;;;;;;;5.01;76.28;95477.28;299395;209;63005;-69
2021/01/30 05:51:22;;;;;;;0.70;0.70;;;;;;;4.93;76.80;95475.22;299395;199;63009;-66
2021/01/30 05:56:23;;;;;;;0.70;0.70;;;;;;;4.89;76.00;95461.56;299395;203;63004;-69
2021/01/30 06:01:31;;;;;;;0.70;0.70;;;;;;;4.96;76.08;95466.59;299395;319;63009;-66
2021/01/30 06:07:00;;;;;;;0.70;0.70;;;;;;;4.88;76.02;95467.25;299395;233;63004;-66
2021/01/30 06:12:16;;;;;;;0.60;0.60;;;;;;;4.90;75.92;95454.31;299395;396;63009;-67
2021/01/30 06:17:32;;;;;;;0.60;0.60;;;;;;;4.97;74.88;95449.38;299395;226;63005;-66
2021/01/30 06:22:33;;;;;;;0.70;0.70;;;;;;;4.80;76.87;95449.91;299395;306;63009;-67
2021/01/30 06:27:41;;;;;;;0.60;0.60;;;;;;;4.97;75.25;95444.00;299395;199;63004;-66
2021/01/30 06:32:46;;;;;;;0.60;0.60;;;;;;;4.83;76.21;95443.16;299395;295;63009;-59
2021/01/30 06:37:55;;;;;;;0.60;0.60;;;;;;;4.88;75.42;95453.81;299417;212;63005;-65
2021/01/30 06:43:11;;;;;;;0.60;0.60;;;;;;;4.93;75.22;95437.59;299395;237;63009;-67
2021/01/30 06:48:39;;;;;;;0.60;0.60;;;;;;;5.02;74.19;95441.22;299395;257;63005;-68
2021/01/30 06:53:40;;;;;;;0.60;0.60;;;;;;;4.91;75.18;95445.97;299395;212;63009;-68
2021/01/30 06:58:43;;;;;;;0.60;0.60;;;;;;;4.95;74.80;95440.81;299395;207;63004;-68
2021/01/30 07:04:42;;;;;;;0.70;0.70;;;;;;;4.86;76.00;95437.97;299395;210;63009;-67
2021/01/30 07:10:26;;;;;;;0.70;0.70;;;;;;;4.88;75.88;95432.31;299395;278;63005;-67
2021/01/30 07:15:31;;;;;;;0.70;0.70;;;;;;;4.82;76.72;95425.44;299395;225;63009;-67
2021/01/30 07:20:49;;;;;;;;;;;;;;;4.76;76.96;95432.75;299996;981;6000;-70
2021/01/30 07:26:11;;;;;;;0.60;0.60;;;;;;;4.92;76.31;95430.63;299400;204;63005;-63
2021/01/30 07:31:29;;;;;;;0.62;0.62;;;;;;;4.85;76.27;95427.53;299395;239;63009;-68
2021/01/30 07:36:38;;;;;;;0.60;0.60;;;;;;;4.85;76.92;95416.78;299395;283;63004;-57
2021/01/30 07:42:14;;;;;;;0.70;0.70;;;;;;;4.80;76.98;95422.22;299395;285;63009;-67
2021/01/30 07:47:22;;;;;;;0.60;0.60;;;;;;;5.00;76.74;95411.16;299417;202;63005;-67
2021/01/30 07:52:28;;;;;;;0.70;0.70;;;;;;;5.07;75.79;95398.16;299395;209;63009;-67
2021/01/30 07:58:22;;;;;;;0.70;0.70;;;;;;;5.03;76.42;95405.19;299395;226;63004;-68
2021/01/30 08:04:03;;;;;;;0.70;0.70;;;;;;;5.14;75.32;95395.88;299395;210;63012;-69
2021/01/30 08:09:33;;;;;;;0.70;0.70;;;;;;;5.07;76.55;95395.44;299395;204;63009;-70
2021/01/30 08:15:02;;;;;;;0.60;0.60;;;;;;;5.18;75.07;95380.75;299395;237;63005;-68
2021/01/30 08:20:29;;;;;;;0.60;0.60;;;;;;;5.29;75.22;95384.06;299395;263;63009;-67
2021/01/30 08:26:02;;;;;;;0.70;0.70;;;;;;;5.23;75.87;95387.91;299395;209;63005;-69
2021/01/30 08:31:03;;;;;;;0.60;0.60;;;;;;;5.30;75.82;95382.97;299395;223;63009;-69
2021/01/30 08:36:43;;;;;;;0.60;0.60;;;;;;;5.26;76.01;95382.75;299395;227;63000;-67
2021/01/30 08:41:54;;;;;;;0.60;0.60;;;;;;;5.36;75.40;95377.19;299395;227;63009;-67
2021/01/30 08:47:31;;;;;;;0.60;0.60;;;;;;;5.23;76.28;95372.56;299395;220;63005;-57
2021/01/30 08:52:55;;;;;;;0.70;0.70;;;;;;;5.21;77.03;95377.44;299395;220;63009;-70
2021/01/30 08:57:56;;;;;;;0.60;0.60;;;;;;;5.25;76.92;95377.66;299395;207;63004;-69
2021/01/30 09:03:02;;;;;;;0.60;0.60;;;;;;;5.29;77.51;95375.97;299395;233;63009;-67
2021/01/30 09:08:37;;;;;;;0.60;0.60;;;;;;;5.30;77.15;95377.56;299395;226;63005;-70
2021/01/30 09:14:01;;;;;;;0.70;0.70;;;;;;;5.34;76.97;95368.63;299394;330;64014;-69
2021/01/30 09:19:04;;;;;;;0.60;0.60;;;;;;;5.45;77.24;95366.56;299395;229;63009;-67
2021/01/30 09:24:59;;;;;;;0.60;0.60;;;;;;;5.58;76.81;95356.88;299396;213;63005;-62
2021/01/30 09:30:21;;;;;;;0.68;0.68;;;;;;;5.62;75.74;95345.22;299396;203;63009;-68
2021/01/30 09:35:29;;;;;;;0.60;0.60;;;;;;;5.61;76.23;95346.31;299396;219;63004;-68
2021/01/30 09:40:31;;;;;;;0.60;0.60;;;;;;;5.75;75.02;95340.94;299396;224;63009;-71
2021/01/30 09:45:34;;;;;;;0.60;0.60;;;;;;;5.77;75.44;95346.84;299396;205;63012;-69
2021/01/30 09:50:39;;;;;;;0.60;0.60;;;;;;;5.88;75.10;95350.13;299396;222;63008;-70
2021/01/30 09:55:41;;;;;;;;;;;;;;;6.01;73.85;95349.34;299997;982;6000;-59
2021/01/30 10:00:45;;;;;;;0.70;0.70;;;;;;;6.00;74.04;95345.03;299401;254;63005;-71
2021/01/30 10:05:47;;;;;;;0.70;0.70;;;;;;;6.07;74.41;95348.12;299418;211;63008;-70
2021/01/30 10:10:48;;;;;;;0.60;0.60;;;;;;;6.15;74.24;95333.97;299376;217;63004;-69
2021/01/30 10:15:55;;;;;;;0.70;0.70;;;;;;;6.31;73.66;95337.91;299397;222;63009;-65
2021/01/30 10:21:01;;;;;;;0.70;0.70;;;;;;;6.35;73.73;95332.72;299396;213;63005;-68
2021/01/30 10:26:23;;;;;;;0.70;0.70;;;;;;;6.16;75.50;95319.41;299396;215;63009;-67
2021/01/30 10:31:31;;;;;;;0.60;0.60;;;;;;;6.18;75.69;95327.19;299396;244;63005;-70
2021/01/30 10:36:36;;;;;;;0.70;0.70;;;;;;;6.22;75.80;95312.00;299396;223;63009;-67
2021/01/30 10:41:43;;;;;;;0.60;0.60;;;;;;;6.03;76.87;95304.84;299396;223;63009;-68
2021/01/30 10:46:44;;;;;;;0.60;0.60;;;;;;;6.16;77.23;95302.44;299396;236;63018;-70
2021/01/30 10:51:46;;;;;;;0.70;0.70;;;;;;;5.95;79.26;95302.06;299396;219;63005;-68
2021/01/30 10:57:31;;;;;;;0.60;0.60;;;;;;;5.98;79.07;95291.50;299396;215;63008;-69
2021/01/30 11:02:44;;;;;;;0.70;0.70;;;;;;;6.06;77.94;95292.69;299396;214;63009;-70
2021/01/30 11:07:51;;;;;;;0.70;0.70;;;;;;;6.04;77.60;95287.59;299397;202;63005;-70
2021/01/30 11:13:06;;;;;;;0.60;0.60;;;;;;;5.88;79.92;95290.91;299395;268;63009;-60
2021/01/30 11:18:19;;;;;;;0.60;0.60;;;;;;;6.03;79.29;95286.00;299439;217;63004;-71
2021/01/30 11:23:43;;;;;;;0.70;0.70;;;;;;;5.92;79.89;95268.47;299395;222;63009;-68
2021/01/30 11:28:46;;;;;;;0.60;0.60;;;;;;;5.94;81.17;95262.78;299395;267;63005;-70
2021/01/30 11:33:52;;;;;;;0.62;0.62;;;;;;;5.99;80.20;95255.41;299395;245;63008;-69
2021/01/30 11:39:05;;;;;;;0.60;0.60;;;;;;;5.95;80.56;95245.53;299395;197;63004;-68
2021/01/30 11:44:07;;;;;;;0.70;0.70;;;;;;;5.90;81.22;95235.69;299395;251;63009;-69
2021/01/30 11:49:08;;;;;;;0.70;0.70;;;;;;;5.80;82.06;95224.31;299395;265;63012;-69
2021/01/30 11:54:11;;;;;;;0.70;0.70;;;;;;;5.80;83.23;95205.50;299395;198;63009;-71
2021/01/30 11:59:13;;;;;;;0.60;0.60;;;;;;;5.76;83.03;95197.22;299395;232;63005;-68
2021/01/30 12:04:27;;;;;;;0.60;0.60;;;;;;;5.66;83.86;95192.06;299395;230;63008;-69
2021/01/30 12:09:29;;;;;;;0.70;0.70;;;;;;;5.63;83.66;95187.28;299417;230;63004;-67
2021/01/30 12:14:30;;;;;;;0.70;0.70;;;;;;;5.51;85.22;95184.34;299394;244;64009;-67
2021/01/30 12:19:31;;;;;;;0.60;0.60;;;;;;;5.43;85.13;95176.97;299395;209;63004;-65
2021/01/30 12:24:32;;;;;;;0.60;0.60;;;;;;;5.43;85.64;95167.00;299395;225;63009;-69
2021/01/30 12:29:33;;;;;;;0.70;0.70;;;;;;;5.56;84.95;95165.38;299395;260;63005;-68
2021/01/30 12:34:37;;;;;;;0.70;0.70;;;;;;;5.65;83.79;95150.09;299395;206;63008;-67
2021/01/30 12:39:38;;;;;;;0.60;0.60;;;;;;;5.64;83.50;95141.22;299377;216;125011;-68
2021/01/30 12:44:39;;;;;;;0.70;0.70;;;;;;;5.59;83.26;95137.84;299395;247;63009;-58
2021/01/30 12:49:40;;;;;;;0.60;0.60;;;;;;;5.51;84.93;95119.78;299395;209;63005;-65
2021/01/30 12:54:40;;;;;;;0.68;0.68;;;;;;;5.44;85.42;95114.00;299395;237;63009;-66
2021/01/30 12:59:42;;;;;;;0.70;0.70;;;;;;;5.48;84.94;95110.41;299395;222;63005;-69
2021/01/30 13:04:44;;;;;;;0.60;0.60;;;;;;;5.50;84.16;95096.66;299395;225;63009;-65
2021/01/30 13:09:45;;;;;;;0.60;0.60;;;;;;;5.54;84.31;95092.25;299395;254;63004;-65
2021/01/30 13:14:47;;;;;;;0.70;0.70;;;;;;;5.47;84.91;95086.50;299395;203;63009;-63
2021/01/30 13:19:48;;;;;;;0.60;0.60;;;;;;;5.43;84.98;95080.13;299395;210;63005;-63
2021/01/30 13:24:52;;;;;;;0.60;0.60;;;;;;;5.51;84.79;95077.53;299395;241;63009;-64
2021/01/30 13:29:53;;;;;;;0.70;0.70;;;;;;;5.32;86.23;95074.97;299417;198;63005;-64
2021/01/30 13:34:54;;;;;;;0.70;0.70;;;;;;;5.26;86.48;95070.00;299395;249;63009;-61
2021/01/30 13:39:55;;;;;;;0.70;0.70;;;;;;;5.16;86.82;95064.88;299395;301;63004;-63
2021/01/30 13:44:56;;;;;;;0.70;0.70;;;;;;;5.13;87.15;95066.28;299395;269;63009;-67
2021/01/30 13:49:56;;;;;;;0.70;0.70;;;;;;;5.16;85.40;95056.81;299395;221;63005;-61
2021/01/30 13:54:58;;;;;;;0.70;0.70;;;;;;;5.11;85.78;95052.34;299395;199;63009;-61
2021/01/30 13:59:59;;;;;;;0.60;0.60;;;;;;;5.01;85.17;95047.19;299395;232;63000;-64
2021/01/30 14:04:59;;;;;;;0.60;0.60;;;;;;;4.95;85.57;95045.69;299395;213;63009;-65
2021/01/30 14:10:01;;;;;;;0.70;0.70;;;;;;;4.93;85.90;95043.31;299395;196;63004;-65
2021/01/30 14:15:03;;;;;;;0.70;0.70;;;;;;;4.91;85.85;95036.66;299395;276;63009;-66
2021/01/30 14:20:06;;;;;;;0.70;0.70;;;;;;;4.87;86.19;95032.97;299395;249;63005;-64
2021/01/30 14:25:08;;;;;;;0.70;0.70;;;;;;;4.85;86.31;95033.25;299395;259;63009;-63
2021/01/30 14:30:10;;;;;;;0.70;0.70;;;;;;;4.85;86.38;95024.44;299395;198;63005;-63
2021/01/30 14:35:14;;;;;;;0.70;0.70;;;;;;;4.78;86.00;95021.38;299395;203;63009;-63
2021/01/30 14:40:23;;;;;;;0.70;0.70;;;;;;;4.71;86.19;95019.88;299395;210;63004;-59
2021/01/30 14:45:24;;;;;;;0.70;0.70;;;;;;;4.61;86.42;95009.34;299395;209;63021;-62
2021/01/30 14:50:28;;;;;;;0.70;0.70;;;;;;;4.56;86.43;94998.69;299395;306;63005;-63
2021/01/30 14:55:29;;;;;;;0.70;0.70;;;;;;;4.48;87.35;94996.72;299417;199;63008;-61
2021/01/30 15:00:31;;;;;;;0.70;0.70;;;;;;;4.47;88.03;94988.97;299395;248;63004;-61
2021/01/30 15:05:36;;;;;;;0.70;0.70;;;;;;;4.50;87.62;94994.53;299395;228;63009;-63
2021/01/30 15:10:38;;;;;;;0.70;0.70;;;;;;;4.48;87.68;94985.19;299394;220;64008;-61
2021/01/30 15:15:40;;;;;;;0.60;0.60;;;;;;;4.54;87.81;94984.75;299395;255;63009;-61
2021/01/30 15:20:42;;;;;;;0.70;0.70;;;;;;;4.43;88.03;94971.88;299395;203;63005;-60
2021/01/30 15:25:43;;;;;;;0.60;0.60;;;;;;;4.47;87.95;94973.66;299395;213;63008;-58
2021/01/30 15:30:44;;;;;;;0.70;0.70;;;;;;;4.41;88.38;94969.47;299395;277;63004;-59
2021/01/30 15:35:46;;;;;;;0.70;0.70;;;;;;;4.42;88.58;94964.91;299395;198;63009;-58
2021/01/30 15:40:51;;;;;;;0.70;0.70;;;;;;;4.42;88.68;94952.28;299395;230;63004;-60
2021/01/30 15:45:55;;;;;;;0.70;0.70;;;;;;;4.30;87.89;94952.78;299417;202;63009;-60
2021/01/30 15:50:56;;;;;;;0.70;0.70;;;;;;;4.28;88.32;94951.50;299395;216;63005;-60
2021/01/30 15:55:59;;;;;;;0.70;0.70;;;;;;;4.20;87.97;94947.63;299395;254;63008;-59
2021/01/30 16:01:03;;;;;;;0.60;0.60;;;;;;;4.29;87.97;94939.66;299395;272;63004;-60
2021/01/30 16:06:06;;;;;;;0.70;0.70;;;;;;;4.23;87.34;94940.84;299417;234;63009;-59
2021/01/30 16:11:08;;;;;;;0.70;0.70;;;;;;;4.11;87.69;94938.69;299395;216;63005;-60
2021/01/30 16:16:10;;;;;;;0.70;0.70;;;;;;;4.06;88.21;94946.03;299395;225;63009;-61
2021/01/30 16:21:13;;;;;;;0.70;0.70;;;;;;;4.10;87.93;94941.69;299395;235;63005;-58
2021/01/30 16:26:14;;;;;;;0.70;0.70;;;;;;;4.09;87.62;94935.50;299395;223;63009;-57
2021/01/30 16:31:16;;;;;;;0.70;0.70;;;;;;;3.97;87.93;94938.69;299395;211;63004;-57
2021/01/30 16:36:20;;;;;;;0.70;0.70;;;;;;;3.99;87.94;94938.38;299395;265;63009;-62
2021/01/30 16:41:21;;;;;;;0.70;0.70;;;;;;;4.04;87.76;94939.09;299417;281;63005;-62
2021/01/30 16:46:22;;;;;;;0.70;0.70;;;;;;;3.97;87.69;94944.06;299395;254;63009;-63
2021/01/30 16:51:24;;;;;;;0.70;0.70;;;;;;;3.93;87.85;94936.88;299395;231;63005;-57
2021/01/30 16:56:27;;;;;;;0.70;0.70;;;;;;;3.92;87.85;94935.31;299395;244;63009;-57
2021/01/30 17:01:28;;;;;;;0.70;0.70;;;;;;;3.89;87.95;94942.06;299395;220;63004;-62
2021/01/30 17:06:29;;;;;;;0.70;0.70;;;;;;;3.87;87.66;94944.25;299395;285;63009;-63
2021/01/30 17:11:31;;;;;;;0.70;0.70;;;;;;;3.84;88.04;94950.19;299395;219;63005;-62
2021/01/30 17:16:33;;;;;;;0.70;0.70;;;;;;;3.76;88.45;94948.22;299395;222;63009;-61
2021/01/30 17:21:34;;;;;;;0.70;0.70;;;;;;;3.72;88.39;94941.88;299395;275;63005;-63
2021/01/30 17:26:36;;;;;;;0.70;0.70;;;;;;;3.70;88.53;94952.88;299395;213;63009;-62
2021/01/30 17:31:37;;;;;;;0.70;0.70;;;;;;;3.65;89.09;94955.66;299395;320;63004;-62
2021/01/30 17:36:40;;;;;;;0.70;0.70;;;;;;;3.74;88.42;94954.97;299395;246;63009;-63
2021/01/30 17:41:41;;;;;;;0.68;0.68;;;;;;;3.72;88.56;94960.63;299395;198;63005;-56
2021/01/30 17:46:42;;;;;;;0.70;0.70;;;;;;;3.73;88.02;94956.06;299395;210;63009;-63
2021/01/30 17:51:44;;;;;;;0.70;0.70;;;;;;;3.75;88.30;94952.00;299395;237;63004;-63
2021/01/30 17:56:45;;;;;;;0.70;0.70;;;;;;;3.72;88.11;94951.78;299395;292;63009;-63
2021/01/30 18:01:46;;;;;;;0.70;0.70;;;;;;;3.66;88.52;94951.09;299395;197;63004;-63
2021/01/30 18:06:48;;;;;;;0.70;0.70;;;;;;;3.68;88.76;94957.75;299395;269;63009;-62
2021/01/30 18:11:49;;;;;;;0.65;0.65;;;;;;;3.68;88.64;94947.03;299395;228;63005;-63
2021/01/30 18:16:50;;;;;;;0.70;0.70;;;;;;;3.70;88.48;94949.41;299395;222;63020;-63
2021/01/30 18:21:51;;;;;;;0.70;0.70;;;;;;;3.70;89.27;94946.72;299395;203;63004;-63
2021/01/30 18:26:52;;;;;;;0.70;0.70;;;;;;;3.67;89.01;94944.62;299395;275;63009;-63
2021/01/30 18:31:58;;;;;;;0.70;0.70;;;;;;;3.62;89.47;94950.09;299395;250;63004;-62
2021/01/30 18:36:59;;;;;;;0.70;0.70;;;;;;;3.61;89.70;94943.13;299395;349;63009;-63
2021/01/30 18:42:01;;;;;;;0.70;0.70;;;;;;;3.62;90.13;94952.78;299394;249;64005;-65
2021/01/30 18:47:02;;;;;;;0.70;0.70;;;;;;;3.64;90.22;94950.59;299395;263;63009;-61
2021/01/30 18:52:03;;;;;;;0.70;0.70;;;;;;;3.63;90.20;94949.00;299395;334;63004;-61
2021/01/30 18:57:05;;;;;;;0.70;0.70;;;;;;;3.69;89.57;94953.97;299395;209;63009;-62
2021/01/30 19:02:06;;;;;;;0.60;0.60;;;;;;;3.63;89.57;94952.47;299395;218;63005;-62
2021/01/30 19:07:08;;;;;;;0.68;0.68;;;;;;;3.59;89.25;94948.78;299395;229;63010;-62
2021/01/30 19:12:09;;;;;;;0.70;0.70;;;;;;;3.60;89.35;94955.75;299395;202;63005;-64
2021/01/30 19:17:12;;;;;;;0.70;0.70;;;;;;;3.59;89.39;94961.41;299395;218;63009;-62
2021/01/30 19:22:14;;;;;;;0.70;0.70;;;;;;;3.59;89.25;94959.50;299395;233;63014;-61
2021/01/30 19:27:15;;;;;;;0.70;0.70;;;;;;;3.62;88.62;94956.25;299395;196;63017;-61
2021/01/30 19:32:19;;;;;;;0.70;0.70;;;;;;;3.57;89.04;94950.16;299395;222;63005;-61
2021/01/30 19:37:20;;;;;;;0.70;0.70;;;;;;;3.57;89.29;94960.91;299395;249;63009;-62
2021/01/30 19:42:21;;;;;;;0.70;0.70;;;;;;;3.56;89.72;94956.63;299395;218;63005;-63
2021/01/30 19:47:22;;;;;;;0.70;0.70;;;;;;;3.53;89.65;94951.84;299395;203;63009;-62
2021/01/30 19:52:28;;;;;;;0.90;0.90;;;;;;;3.52;89.68;94958.31;299395;219;63004;-63
2021/01/30 19:57:29;;;;;;;0.70;0.70;;;;;;;3.50;90.24;94958.59;299395;298;63009;-60
2021/01/30 20:02:30;;;;;;;0.68;0.68;;;;;;;3.51;90.30;94975.47;299395;221;63005;-62
2021/01/30 20:07:31;;;;;;;0.70;0.70;;;;;;;3.51;90.63;94968.22;299394;208;64009;-62
2021/01/30 20:12:32;;;;;;;0.60;0.60;;;;;;;3.50;90.79;94972.00;299395;212;63005;-61
2021/01/30 20:17:33;;;;;;;0.70;0.70;;;;;;;3.51;90.51;94972.78;299395;219;63021;-60
2021/01/30 20:22:34;;;;;;;0.70;0.70;;;;;;;3.57;90.91;94977.00;299395;232;63004;-60
2021/01/30 20:27:38;;;;;;;0.70;0.70;;;;;;;3.59;90.21;94975.59;299395;225;63009;-60
2021/01/30 20:32:39;;;;;;;0.70;0.70;;;;;;;3.55;90.14;94984.53;299417;209;63005;-59
2021/01/30 20:37:40;;;;;;;0.70;0.70;;;;;;;3.52;89.89;94985.13;299395;295;63008;-60
2021/01/30 20:42:42;;;;;;;0.70;0.70;;;;;;;3.46;90.09;94978.28;299395;216;63004;-57
2021/01/30 20:47:43;;;;;;;0.70;0.70;;;;;;;3.55;90.11;94987.22;299395;207;63009;-62
2021/01/30 20:52:44;;;;;;;0.70;0.70;;;;;;;3.49;90.41;94974.97;299395;277;63004;-65
2021/01/30 20:57:45;;;;;;;0.70;0.70;;;;;;;3.36;90.54;94976.56;299394;203;64013;-59
2021/01/30 21:02:46;;;;;;;0.70;0.70;;;;;;;3.33;90.96;94983.28;299395;275;63005;-61
2021/01/30 21:07:47;;;;;;;0.70;0.70;;;;;;;3.53;89.70;95000.13;299395;230;63028;-59
2021/01/30 21:12:48;;;;;;;0.70;0.70;;;;;;;3.53;88.99;95008.97;299395;367;63004;-59
2021/01/30 21:17:50;;;;;;;0.70;0.70;;;;;;;3.21;88.81;95014.31;299395;203;63009;-60
2021/01/30 21:22:53;;;;;;;0.70;0.70;;;;;;;3.05;88.84;95024.47;299395;234;63004;-59
2021/01/30 21:27:54;;;;;;;0.70;0.70;;;;;;;2.98;89.35;95026.72;299395;258;63009;-60
2021/01/30 21:32:55;;;;;;;0.70;0.70;;;;;;;2.65;90.26;95015.94;299395;244;63005;-61
2021/01/30 21:37:56;;;;;;;0.70;0.70;;;;;;;2.80;90.24;95019.47;299395;392;63008;-61
2021/01/30 21:42:57;;;;;;;0.70;0.70;;;;;;;2.92;89.49;95025.19;299395;222;63004;-61
2021/01/30 21:47:58;;;;;;;0.70;0.70;;;;;;;2.90;88.59;95028.16;299395;247;63021;-61
2021/01/30 21:53:02;;;;;;;0.70;0.70;;;;;;;2.92;87.57;95035.91;299395;331;63005;-60
2021/01/30 21:58:06;;;;;;;0.70;0.70;;;;;;;2.75;87.96;95046.34;299480;242;125009;-61
2021/01/30 22:03:07;;;;;;;0.70;0.70;;;;;;;2.73;88.64;95048.50;299418;264;63005;-60
2021/01/30 22:08:09;;;;;;;0.80;0.80;;;;;;;2.65;87.85;95053.41;299396;200;63009;-61
2021/01/30 22:13:10;;;;;;;0.70;0.70;;;;;;;2.42;88.91;95051.56;299396;230;63004;-61
2021/01/30 22:18:15;;;;;;;0.70;0.70;;;;;;;2.27;89.51;95046.37;299396;203;63009;-62
2021/01/30 22:23:17;;;;;;;0.70;0.70;;;;;;;2.21;90.02;95050.19;299418;197;63005;-59
2021/01/30 22:28:19;;;;;;;0.70;0.70;;;;;;;2.37;89.09;95056.97;299396;234;63009;-62
2021/01/30 22:33:20;;;;;;;0.70;0.70;;;;;;;2.20;89.21;95057.41;299396;325;63005;-60
2021/01/30 22:38:21;;;;;;;0.75;0.75;;;;;;;2.38;88.94;95050.53;299396;244;63009;-59
2021/01/30 22:43:22;;;;;;;0.70;0.70;;;;;;;2.20;88.48;95067.31;299396;291;64004;-61
2021/01/30 22:48:25;;;;;;;0.70;0.70;;;;;;;2.00;89.79;95063.78;299397;221;63009;-61
2021/01/30 22:53:26;;;;;;;0.70;0.70;;;;;;;2.38;87.74;95063.94;299396;308;63013;-62
2021/01/30 22:58:27;;;;;;;0.70;0.70;;;;;;;2.21;88.71;95063.56;299396;299;63009;-62
2021/01/30 23:03:29;;;;;;;0.73;0.73;;;;;;;1.99;88.91;95072.91;299396;337;63005;-62
2021/01/30 23:08:30;;;;;;;1.27;1.23;;;;;;;2.06;88.73;95071.78;299396;309;63009;-62
2021/01/30 23:13:31;;;;;;;0.70;0.70;;;;;;;1.94;89.35;95069.47;299396;298;63009;-63
2021/01/30 23:18:32;;;;;;;0.70;0.70;;;;;;;1.92;88.92;95072.44;299395;357;64009;-63
2021/01/30 23:23:33;;;;;;;0.70;0.70;;;;;;;1.98;89.43;95084.69;299396;231;63005;-61
2021/01/30 23:28:36;;;;;;;0.70;0.70;;;;;;;1.91;88.57;95080.72;299396;211;63009;-63
2021/01/30 23:33:37;;;;;;;0.70;0.70;;;;;;;1.97;88.71;95080.41;299397;363;63010;-61
2021/01/30 23:38:39;;;;;;;0.80;0.80;;;;;;;1.75;89.82;95087.28;299397;218;63009;-63
2021/01/30 23:43:42;;;;;;;0.70;0.70;;;;;;;1.95;88.69;95093.25;299395;196;63004;-63
2021/01/30 23:48:42;;;;;;;0.70;0.70;;;;;;;1.78;89.80;95103.56;299395;253;63009;-63
2021/01/30 23:53:43;;;;;;;0.75;0.75;;;;;;;1.83;89.18;95100.06;299395;202;63005;-62
2021/01/30 23:58:44;;;;;;;0.70;0.70;;;;;;;1.71;89.65;95107.66;299395;322;63008;-62
